Accueil
METAR-TAF:

METAR-TAF

Aéroports :

Gilze-Rijen, Pays-Bas

latitude: 51-34N, longitude: 004-56E, altitude: 15 m

Observation

Le bulletin a été fait il y a 35 minutes, à 05:55 UTC
Vent 3 kt de sud/sud-est
Température 4°C
Humidité 81%
Pression 1034 hPa
Visibilité 10 km ou plus
Ciel couvert à une hauteur de 1900 ft

METAR: EHGR 240555Z AUTO 16003KT 9999 OVC019 04/01 Q1034 WHT

Heure: 07:30 (06:30 UTC)

Prévision

Le bulletin a été fait il y a 1 heure et 20 minutes, à 05:10 UTC
Prévision valable du 24 à 06 UTC au 24 à 18 UTC
Vent 3 kt de est/sud-est
Visibilité: 9000 m
Ciel couvert à une hauteur de 2000 ft
Probabilité 30%
du 24 à 06 UTC au 24 à 10 UTC
Visibilité: 4000 m
brume
Probabilité 40%
du 24 à 15 UTC au 24 à 18 UTC
Visibilité: 4000 m
brume, Brouillard mince

TAF: EHGR 240510Z 2406/2418 12003KT 9000 OVC020 PROB30 2406/2410 4000 BR PROB40 2415/2418 4000 BR MIFG

Observations et prévisions météorologiques de plus de 4000 aéroports (messages METAR et TAF).

Les stations disponibles sont représentées par des disques jaunes et rouges sur la carte.

Passer la souris dessus pour voir le nom de la station.

Cliquer dessus pour voir les observations et prévisions météorologiques.

Pour changer de carte: cliquez sur les boutons verts avec une croix noire pour zoomer, sur le bouton vert avec un tiret pour effectuer un zoom arrière, ou sur les flèches vertes pour les cartes adjacentes.


METAR-TAF: